Bates City, MO (64011)

12:50 AM CDT on March 27, 2015 (GMT -0500)
Oakshire Estates | | Change Station
CLOSE
Current Station
Personal Weather Station
Location: Bates City, MO
Elevation: 1059 ft
Nearby Weather Stations

Elev 1059 ft 38.89 °N, 94.04 °W | Updated 400 days ago

Rain
Rain
38 °F
Feels Like 31 °F
N
8
Wind Variable Wind from North
Gusts mph

Today
High -- | Low -- °F
--% Chance of Precip.
Yesterday
High -- | Low -- °F
Precip. -- in
7:09 AM 7:34 PM
Waxing Crescent, 49% visible
Pressure 30.14 in
Visibility 10.0 miles
Clouds Mostly Cloudy 1400 ft
Overcast 1900 ft
Windchill 31 °F
Dew Point 32 °F
Humidity 80%
Rainfall in
Snow Depth Not available.
UV 0 out of 12
Pollen 8.10 out of 12
Air Quality Not available.
Flu Activity Not available.
SPECI KLXT 270546Z AUTO 02009KT 10SM -RA BKN014 OVC019 04/02 A3014 RMK AO2 P0001 T00390017

More Conditions Fewer Conditions

Pressure 30.14 in
Visibility 10.0 miles
Clouds Mostly Cloudy 1400 ft
Overcast 1900 ft
Windchill 31 °F
Dew Point 32 °F
Humidity 80%
Rainfall in
Snow Depth Not available.
UV 0 out of 12
Pollen 8.10 out of 12
Air Quality Not available.
Flu Activity Not available.
SPECI KLXT 270546Z AUTO 02009KT 10SM -RA BKN014 OVC019 04/02 A3014 RMK AO2 P0001 T00390017

More Conditions Fewer Conditions

10-Day Weather Forecast

Almanac

Astronomy

Mar. 27, 2015 Rise Set
Actual Time
Civil Twilight
Nautical Twilight
Astronomical Twilight
Moon
Length of Visible Light
Length of Day
Tomorrow will be .
, % of the Moon is Illuminated

Today's Extremes

State Highs State Lows

Community

WunderPhotos

Upload Photos

1,808,698 photos uploaded!

WunderBlogs® & News

Nearby

Air Quality

  Air Quality AQ Index Pollutant
Not available.

Snow Depth

Station Depth Elevation

Earthquake Activity

City Distance Mag. Time & Date
Minimum magnitude displayed is 2.5.

Coastal Water Temperatures

Place Temperature

Stations

Nearby Weather Stations

Station Location Temp. Windchill Dew Point Humidity Wind Precip. Elev Updated Type